Time;durP1;ratioP1;P1;durP2;ratioP2;P2;SDS_P1;SDS_P2;PMS_P1;PMS_P2;Temp;Humidity;BMP_temperature;BMP_pressure;BME280_temperature;BME280_humidity;BME280_pressure;Samples;Min_cycle;Max_cycle;Signal;HPM_P1;HPM_P2
2022/01/17 00:01:18;;;;;;;22.30;10.73;;;;;;;3.73;89.44;101568.34;8190717;35;20351;-76
2022/01/17 00:06:22;;;;;;;26.95;13.90;;;;;;;3.84;89.33;101552.00;8173054;35;20211;-78
2022/01/17 00:11:25;;;;;;;29.20;14.63;;;;;;;3.79;88.83;101536.25;8174455;35;20163;-76
2022/01/17 00:16:39;;;;;;;33.38;13.65;;;;;;;3.93;88.54;101541.94;8172029;35;20192;-76
2022/01/17 00:21:43;;;;;;;24.60;10.55;;;;;;;3.79;89.31;101546.88;8171614;35;20641;-75
2022/01/17 00:26:47;;;;;;;25.02;13.25;;;;;;;3.98;88.46;101552.44;8173670;35;20197;-76
2022/01/17 00:31:50;;;;;;;22.27;11.00;;;;;;;3.75;89.34;101547.88;8174159;35;20246;-78
2022/01/17 00:36:54;;;;;;;18.10;9.02;;;;;;;3.79;89.52;101546.88;8178133;35;20191;-77
2022/01/17 00:41:57;;;;;;;16.23;8.43;;;;;;;3.75;88.90;101562.97;8176820;35;21177;-77
2022/01/17 00:47:01;;;;;;;17.80;9.35;;;;;;;3.82;88.91;101552.09;8175148;35;20194;-77
2022/01/17 00:52:06;;;;;;;17.48;8.30;;;;;;;3.80;88.79;101574.31;8174924;35;20187;-77
2022/01/17 00:57:10;;;;;;;16.63;7.28;;;;;;;3.67;88.64;101572.06;8175140;35;20735;-77
2022/01/17 01:02:13;;;;;;;14.20;6.85;;;;;;;3.70;89.23;101592.34;8173807;35;20192;-77
2022/01/17 01:07:19;;;;;;;13.48;6.15;;;;;;;3.62;89.73;101597.03;8172749;35;20136;-78
2022/01/17 01:12:22;;;;;;;10.07;4.47;;;;;;;3.58;89.87;101595.44;8172039;35;20332;-76
2022/01/17 01:17:36;;;;;;;7.07;2.80;;;;;;;3.17;90.70;101608.22;8170421;35;20152;-76
2022/01/17 01:28:03;;;;;;;2.90;2.05;;;;;;;3.57;87.30;101580.41;8170173;35;20618;-76
2022/01/17 01:33:07;;;;;;;4.55;2.40;;;;;;;3.56;87.17;101597.25;8170477;35;20258;-76
2022/01/17 01:38:11;;;;;;;8.85;2.25;;;;;;;3.09;87.97;101596.97;8171220;35;21596;-76
2022/01/17 01:43:14;;;;;;;3.90;2.15;;;;;;;3.39;87.19;101588.03;8169937;35;20502;-76
2022/01/17 01:48:19;;;;;;;2.17;1.98;;;;;;;3.35;86.22;101588.22;8170251;35;21520;-76
2022/01/17 01:53:25;;;;;;;3.13;1.95;;;;;;;3.24;86.50;101610.66;8170023;35;20202;-77
2022/01/17 01:58:29;;;;;;;5.43;2.13;;;;;;;3.42;85.95;101614.50;8189402;35;20270;-75
2022/01/17 02:03:31;;;;;;;4.07;2.28;;;;;;;3.10;84.06;101625.25;8171146;35;20196;-77
2022/01/17 02:08:36;;;;;;;2.85;1.50;;;;;;;3.15;83.22;101620.66;8170474;35;20195;-77
2022/01/17 02:13:40;;;;;;;3.45;1.40;;;;;;;3.36;81.75;101609.38;8172693;35;20576;-77
2022/01/17 02:18:46;;;;;;;5.93;2.25;;;;;;;3.12;81.97;101634.91;8171991;35;20198;-77
2022/01/17 02:23:53;;;;;;;2.47;1.85;;;;;;;3.47;81.69;101632.97;8170859;35;20199;-76
2022/01/17 02:28:58;;;;;;;5.53;1.88;;;;;;;3.23;81.62;101608.91;8169950;35;20609;-76
2022/01/17 02:34:03;;;;;;;7.88;2.13;;;;;;;3.26;80.04;101592.88;8169808;35;20448;-76
2022/01/17 02:39:08;;;;;;;8.82;2.13;;;;;;;3.30;79.42;101588.34;8192707;35;20525;-76
2022/01/17 02:44:11;;;;;;;8.07;2.08;;;;;;;3.15;79.39;101581.69;8188082;35;20406;-76
2022/01/17 02:49:14;;;;;;;13.55;1.98;;;;;;;3.45;79.42;101579.00;8169556;35;20258;-76
2022/01/17 02:54:19;;;;;;;5.13;2.00;;;;;;;3.43;79.49;101588.84;8169575;35;21418;-76
2022/01/17 02:59:29;;;;;;;4.57;1.63;;;;;;;3.34;80.08;101570.50;8191083;35;20197;-76
2022/01/17 03:04:33;;;;;;;7.75;2.08;;;;;;;3.00;82.10;101563.59;8174060;35;20193;-78
2022/01/17 03:09:45;;;;;;;13.25;2.38;;;;;;;2.97;82.21;101556.59;8173399;35;20243;-76
2022/01/17 03:14:48;;;;;;;5.90;1.95;;;;;;;3.22;81.75;101566.47;8173032;35;20759;-76
2022/01/17 03:19:51;;;;;;;6.65;1.80;;;;;;;3.42;81.49;101557.84;8172758;35;20266;-76
2022/01/17 03:24:56;;;;;;;10.73;2.78;;;;;;;3.38;81.73;101549.13;8172414;35;20230;-76
2022/01/17 03:29:59;;;;;;;10.32;2.63;;;;;;;3.34;81.07;101549.25;8172462;35;20202;-76
2022/01/17 03:35:02;;;;;;;3.95;1.98;;;;;;;3.37;80.90;101541.19;8172968;35;20196;-75
2022/01/17 03:40:11;;;;;;;5.22;2.47;;;;;;;3.74;79.15;101570.06;8192011;35;20204;-76
2022/01/17 03:45:15;;;;;;;4.45;1.70;;;;;;;3.43;78.97;101564.91;8172544;35;20714;-77
2022/01/17 03:50:22;;;;;;;5.65;2.28;;;;;;;3.53;78.99;101563.69;8171737;35;20195;-77
2022/01/17 03:55:28;;;;;;;8.52;2.42;;;;;;;3.32;79.06;101546.66;8172087;35;20306;-77
2022/01/17 04:00:36;;;;;;;9.00;2.67;;;;;;;3.52;78.15;101569.06;8171327;35;20195;-75
2022/01/17 04:05:39;;;;;;;4.28;1.92;;;;;;;3.34;79.49;101586.44;8191735;35;20210;-75
2022/01/17 04:10:44;;;;;;;5.97;2.10;;;;;;;3.30;79.23;101606.94;8171855;35;20183;-77
2022/01/17 04:15:48;;;;;;;7.60;2.45;;;;;;;3.20;79.07;101593.06;8172257;35;20196;-75
2022/01/17 04:20:52;;;;;;;7.63;2.38;;;;;;;3.61;78.16;101596.19;8171755;35;20563;-75
2022/01/17 04:25:57;;;;;;;10.25;2.70;;;;;;;3.53;78.35;101595.56;8171385;35;20223;-75
2022/01/17 04:31:00;;;;;;;11.75;2.15;;;;;;;3.47;78.03;101586.00;8171459;35;20481;-75
2022/01/17 04:36:07;;;;;;;12.88;3.25;;;;;;;3.58;77.93;101576.81;8171453;35;20186;-75
2022/01/17 04:41:15;;;;;;;7.45;2.20;;;;;;;3.47;78.50;101583.34;8171686;35;20597;-78
2022/01/17 04:46:18;;;;;;;5.47;2.03;;;;;;;3.16;78.79;101561.34;8171484;35;20984;-75
2022/01/17 04:51:22;;;;;;;7.07;2.60;;;;;;;3.39;78.93;101581.88;8171731;35;20199;-75
2022/01/17 04:56:26;;;;;;;9.48;2.50;;;;;;;3.18;79.27;101589.59;8171501;35;20180;-75
2022/01/17 05:01:29;;;;;;;7.88;1.88;;;;;;;3.13;78.89;101593.31;8172002;35;20976;-77
2022/01/17 05:06:32;;;;;;;9.30;2.15;;;;;;;3.08;79.27;101592.59;8172570;35;21126;-77
2022/01/17 05:11:36;;;;;;;8.45;2.40;;;;;;;3.16;78.40;101564.88;8174817;35;20376;-77
2022/01/17 05:16:45;;;;;;;5.20;2.03;;;;;;;3.20;77.48;101585.09;8174007;35;21120;-77
2022/01/17 05:21:48;;;;;;;6.90;1.83;;;;;;;3.16;77.52;101587.91;8177132;35;20195;-77
2022/01/17 05:26:52;;;;;;;10.18;2.67;;;;;;;3.50;77.08;101622.22;8176803;35;20203;-77
2022/01/17 05:31:55;;;;;;;7.90;2.72;;;;;;;3.30;77.22;101604.28;8171744;35;20569;-77
2022/01/17 05:37:01;;;;;;;6.82;2.70;;;;;;;3.46;76.96;101602.00;8172629;35;20267;-76
2022/01/17 05:42:07;;;;;;;13.30;3.10;;;;;;;3.21;77.78;101585.94;8171062;35;20222;-76
2022/01/17 05:47:11;;;;;;;6.95;2.15;;;;;;;3.51;77.37;101592.06;8170514;35;20175;-76
2022/01/17 05:52:14;;;;;;;7.60;2.30;;;;;;;3.34;77.16;101586.44;8170052;35;20195;-76
2022/01/17 05:57:19;;;;;;;8.68;2.47;;;;;;;3.13;77.61;101588.00;8169650;35;20672;-77
2022/01/17 06:02:23;;;;;;;3.95;2.05;;;;;;;3.43;76.61;101578.22;8168687;35;20494;-77
2022/01/17 06:07:26;;;;;;;5.10;2.45;;;;;;;3.46;75.53;101562.16;8170032;35;20581;-76
2022/01/17 06:12:30;;;;;;;9.05;2.33;;;;;;;3.42;76.39;101598.56;8170568;35;20191;-77
2022/01/17 06:17:33;;;;;;;10.15;2.70;;;;;;;3.42;76.68;101587.94;8172706;35;20486;-77
2022/01/17 06:22:36;;;;;;;9.27;3.70;;;;;;;3.48;76.25;101578.91;8194241;35;20265;-78
2022/01/17 06:27:41;;;;;;;13.00;2.65;;;;;;;3.17;76.87;101576.34;8183585;35;20151;-76
2022/01/17 06:32:46;;;;;;;8.02;2.63;;;;;;;3.24;76.77;101570.81;8169584;35;20266;-76
2022/01/17 06:37:51;;;;;;;9.15;2.50;;;;;;;3.34;76.89;101557.22;8168781;35;20195;-75
2022/01/17 06:42:59;;;;;;;5.63;2.55;;;;;;;3.35;76.62;101562.50;8168642;35;20571;-77
2022/01/17 06:48:02;;;;;;;7.65;2.45;;;;;;;3.26;77.36;101570.75;8168892;35;20943;-77
2022/01/17 06:53:06;;;;;;;2.15;1.67;;;;;;;3.28;76.54;101580.41;8187941;35;20469;-75
2022/01/17 06:58:10;;;;;;;8.23;2.83;;;;;;;3.37;76.55;101597.84;8168864;35;20187;-75
2022/01/17 07:03:14;;;;;;;5.55;2.13;;;;;;;3.35;77.04;101625.41;8167940;35;21186;-76
2022/01/17 07:08:17;;;;;;;5.15;2.45;;;;;;;3.10;77.48;101654.44;8170189;35;20875;-75
2022/01/17 07:13:21;;;;;;;10.68;2.63;;;;;;;3.37;77.14;101698.78;8168850;35;20223;-76
2022/01/17 07:18:24;;;;;;;5.45;2.30;;;;;;;3.36;77.41;101673.13;8168848;35;20191;-75
2022/01/17 07:23:27;;;;;;;4.95;2.30;;;;;;;3.43;77.44;101644.63;8186833;35;20160;-76
2022/01/17 07:28:32;;;;;;;7.57;2.30;;;;;;;3.09;78.07;101656.25;8168215;35;20148;-77
2022/01/17 07:33:37;;;;;;;9.13;2.35;;;;;;;3.20;77.43;101643.50;8169048;35;20191;-77
2022/01/17 07:38:40;;;;;;;12.80;3.40;;;;;;;3.55;77.49;101633.59;8168478;35;20247;-76
2022/01/17 07:43:45;;;;;;;5.72;2.80;;;;;;;3.04;79.40;101613.03;8169864;35;20195;-77
2022/01/17 07:49:09;;;;;;;7.28;2.83;;;;;;;3.13;79.45;101635.81;8174341;35;21207;-79
2022/01/17 07:54:15;;;;;;;7.60;2.50;;;;;;;3.12;80.57;101604.84;8175153;35;20461;-78
2022/01/17 07:59:20;;;;;;;6.53;3.05;;;;;;;3.10;82.09;101628.81;8178824;35;21378;-78
2022/01/17 08:04:23;;;;;;;5.05;2.13;;;;;;;3.16;81.14;101628.59;8179284;35;20294;-78
2022/01/17 08:09:31;;;;;;;9.73;3.63;;;;;;;3.26;80.45;101623.88;8198578;35;20196;-77
2022/01/17 08:14:41;;;;;;;12.65;3.70;;;;;;;3.43;80.29;101647.28;8202012;35;20160;-78
2022/01/17 08:19:47;;;;;;;9.38;3.38;;;;;;;3.47;81.02;101647.13;8178168;35;20291;-78
2022/01/17 08:24:50;;;;;;;10.38;3.53;;;;;;;3.51;81.34;101621.31;8180033;35;20539;-78
2022/01/17 08:29:55;;;;;;;6.85;3.45;;;;;;;3.15;83.17;101626.84;8179434;35;20489;-79
2022/01/17 08:35:18;;;;;;;10.02;4.72;;;;;;;3.27;84.71;101610.56;8179948;35;21440;-79
2022/01/17 08:40:22;;;;;;;12.00;5.60;;;;;;;3.13;86.58;101612.78;8175252;35;20494;-78
2022/01/17 08:45:29;;;;;;;16.17;6.00;;;;;;;3.02;87.65;101621.06;8175527;35;20212;-78
2022/01/17 08:50:46;;;;;;;14.02;4.80;;;;;;;3.06;88.67;101637.75;8173980;35;20187;-78
2022/01/17 08:55:49;;;;;;;15.00;6.65;;;;;;;3.17;88.60;101624.16;8178513;35;20295;-77
2022/01/17 09:00:56;;;;;;;15.45;6.88;;;;;;;2.83;90.44;101647.28;8194888;35;20223;-77
2022/01/17 09:06:00;;;;;;;14.43;5.68;;;;;;;3.02;90.31;101644.94;8193803;35;20191;-77
2022/01/17 09:11:03;;;;;;;16.65;8.25;;;;;;;3.21;90.61;101662.97;8174477;35;20685;-78
2022/01/17 09:16:08;;;;;;;13.70;7.35;;;;;;;3.00;90.89;101661.84;8174796;35;20220;-78
2022/01/17 09:21:12;;;;;;;13.57;6.95;;;;;;;3.15;91.31;101645.44;8174190;35;20294;-78
2022/01/17 09:26:15;;;;;;;17.50;7.30;;;;;;;3.18;91.83;101648.03;8173173;35;20164;-77
2022/01/17 09:31:19;;;;;;;14.20;6.93;;;;;;;3.24;91.90;101658.47;8181915;35;20210;-78
2022/01/17 09:36:25;;;;;;;14.00;7.13;;;;;;;3.46;91.57;101669.28;8177091;35;20189;-77
2022/01/17 09:41:28;;;;;;;18.65;6.47;;;;;;;3.08;92.64;101667.78;8172177;35;20535;-77
2022/01/17 09:46:38;;;;;;;14.57;7.32;;;;;;;3.34;92.83;101669.66;8174498;35;20462;-78
2022/01/17 09:57:08;;;;;;;12.38;6.10;;;;;;;3.51;92.25;101693.03;8182997;35;20573;-77
2022/01/17 10:02:14;;;;;;;15.10;7.03;;;;;;;3.78;91.61;101685.13;8187999;35;20230;-78
2022/01/17 10:07:17;;;;;;;10.80;6.03;;;;;;;3.94;90.02;101702.34;8173461;35;20174;-79
2022/01/17 10:12:20;;;;;;;14.40;7.63;;;;;;;3.78;90.32;101720.56;8169747;35;20893;-76
2022/01/17 10:17:43;;;;;;;11.45;6.28;;;;;;;3.83;91.21;101696.50;8183395;35;21389;-78
2022/01/17 10:22:54;;;;;;;16.13;6.93;;;;;;;3.91;91.32;101705.97;8174453;35;20393;-78
2022/01/17 10:28:35;;;;;;;7.90;4.80;;;;;;;3.58;92.97;101672.47;8193014;35;20502;-77
2022/01/17 10:39:06;;;;;;;15.95;6.90;;;;;;;4.04;90.41;101721.53;8143869;35;20270;-78
2022/01/17 10:44:09;;;;;;;12.43;6.25;;;;;;;4.10;91.52;101663.69;8175410;35;20398;-78
2022/01/17 10:49:14;;;;;;;12.02;6.30;;;;;;;3.69;93.66;101662.38;8169644;35;20748;-78
2022/01/17 10:54:18;;;;;;;12.43;6.68;;;;;;;4.25;90.70;101718.16;8192616;35;20192;-78
2022/01/17 10:59:27;;;;;;;9.07;5.40;;;;;;;3.94;91.85;101695.22;8175223;35;20995;-78
2022/01/17 11:04:41;;;;;;;9.23;4.30;;;;;;;3.59;93.46;101699.00;8170228;35;20160;-78
2022/01/17 11:09:50;;;;;;;14.43;7.55;;;;;;;4.50;90.40;101750.13;8148511;35;20666;-77
2022/01/17 11:14:53;;;;;;;15.77;5.97;;;;;;;4.31;90.46;101747.22;8167561;35;20206;-77
2022/01/17 11:20:05;;;;;;;13.45;5.55;;;;;;;4.35;90.52;101679.66;8188683;35;20274;-77
2022/01/17 11:25:11;;;;;;;9.73;5.28;;;;;;;4.64;89.16;101701.75;8171931;35;20654;-77
2022/01/17 11:30:16;;;;;;;13.45;5.38;;;;;;;4.76;88.14;101719.06;8171947;35;21152;-77
2022/01/17 11:35:25;;;;;;;18.20;7.25;;;;;;;4.86;88.75;101664.56;8172743;35;20159;-77
2022/01/17 11:40:31;;;;;;;5.43;3.17;;;;;;;4.80;89.01;101670.09;8172452;35;20187;-76
2022/01/17 11:45:41;;;;;;;15.52;7.50;;;;;;;4.92;88.23;101714.94;8172512;35;21512;-77
2022/01/17 11:50:48;;;;;;;19.85;7.18;;;;;;;5.31;86.83;101726.88;8180203;35;20203;-78
2022/01/17 11:55:51;;;;;;;22.15;6.53;;;;;;;4.94;89.22;101720.22;8186332;35;21041;-77
2022/01/17 12:01:18;;;;;;;13.75;6.68;;;;;;;4.98;90.15;101733.34;8187052;35;20156;-77
2022/01/17 12:06:27;;;;;;;13.68;4.90;;;;;;;4.94;89.46;101733.53;8183045;35;20251;-77
2022/01/17 12:11:33;;;;;;;18.67;6.40;;;;;;;5.42;88.11;101712.19;8170995;35;20318;-78
2022/01/17 12:16:37;;;;;;;20.85;6.95;;;;;;;5.30;88.34;101691.38;8186780;35;20172;-78
2022/01/17 12:21:44;;;;;;;14.32;5.82;;;;;;;5.97;84.95;101703.81;8176018;35;20152;-76
2022/01/17 12:27:04;;;;;;;20.45;6.20;;;;;;;5.89;85.76;101722.78;8173262;35;20643;-77
2022/01/17 12:32:21;;;;;;;17.08;6.50;;;;;;;5.55;87.48;101723.28;8172618;35;20227;-76
2022/01/17 12:37:36;;;;;;;14.95;6.47;;;;;;;6.16;85.98;101723.47;8191226;35;20479;-78
2022/01/17 12:42:57;;;;;;;20.08;7.55;;;;;;;6.15;85.13;101745.75;8181316;35;20242;-78
2022/01/17 12:48:06;;;;;;;16.17;5.78;;;;;;;6.08;85.22;101708.72;8179386;35;20199;-77
2022/01/17 12:53:13;;;;;;;19.70;6.65;;;;;;;6.10;85.24;101717.53;8172022;35;20324;-77
2022/01/17 12:58:19;;;;;;;14.02;5.70;;;;;;;6.40;83.89;101720.72;8184248;35;20275;-77
2022/01/17 13:03:26;;;;;;;15.80;5.43;;;;;;;6.22;82.74;101727.69;8171507;35;20156;-76
2022/01/17 13:08:30;;;;;;;19.60;5.18;;;;;;;6.09;82.80;101742.50;8177936;35;20159;-77
2022/01/17 13:13:33;;;;;;;12.93;4.90;;;;;;;6.22;83.61;101730.34;8171510;35;20144;-77
2022/01/17 13:18:36;;;;;;;17.45;4.93;;;;;;;6.23;84.60;101724.09;8171691;35;20176;-77
2022/01/17 13:23:47;;;;;;;12.40;5.07;;;;;;;5.88;84.87;101736.22;8170584;35;20900;-77
2022/01/17 13:28:56;;;;;;;15.30;5.63;;;;;;;5.92;83.92;101708.47;8173069;35;20852;-78
2022/01/17 13:34:14;;;;;;;21.48;5.07;;;;;;;6.29;82.64;101722.97;8193423;35;20543;-76
2022/01/17 13:39:22;;;;;;;15.45;4.93;;;;;;;6.10;82.40;101701.53;8174144;35;20189;-78
2022/01/17 13:44:28;;;;;;;14.15;5.00;;;;;;;6.01;82.51;101707.25;8174220;35;20184;-78
2022/01/17 13:49:34;;;;;;;13.55;4.35;;;;;;;6.36;81.37;101760.03;8171876;35;20990;-77
2022/01/17 13:54:42;;;;;;;21.17;4.65;;;;;;;6.58;80.43;101725.28;8171302;35;20174;-77
2022/01/17 13:59:56;;;;;;;17.80;4.95;;;;;;;7.12;79.01;101756.81;8170558;35;20203;-77
2022/01/17 14:04:59;;;;;;;16.88;5.20;;;;;;;7.00;79.08;101732.38;8193518;35;20267;-77
2022/01/17 14:10:18;;;;;;;17.00;4.40;;;;;;;7.44;76.36;101748.19;8170634;35;20198;-77
2022/01/17 14:15:27;;;;;;;20.48;4.45;;;;;;;7.90;74.91;101742.50;8171205;35;20140;-76
2022/01/17 14:20:30;;;;;;;17.23;5.50;;;;;;;7.30;76.11;101747.97;8172986;35;20199;-76
2022/01/17 14:25:39;;;;;;;31.77;6.53;;;;;;;6.66;80.03;101743.63;8169465;35;20199;-76
2022/01/17 14:30:42;;;;;;;12.05;4.18;;;;;;;7.11;79.51;101737.25;8169797;35;20261;-76
2022/01/17 14:36:07;;;;;;;17.45;4.43;;;;;;;7.18;77.65;101776.09;8170164;35;20180;-78
2022/01/17 14:41:18;;;;;;;20.02;4.43;;;;;;;6.66;81.35;101774.81;8191652;35;20268;-79
2022/01/17 14:46:25;;;;;;;23.65;7.20;;;;;;;6.15;85.27;101777.78;8168668;35;20651;-76
2022/01/17 14:51:32;;;;;;;13.70;5.32;;;;;;;6.16;85.25;101811.53;8167317;35;20630;-77
2022/01/17 15:02:10;;;;;;;14.32;4.55;;;;;;;6.25;86.28;101842.31;8175758;35;20243;-79
2022/01/17 15:07:16;;;;;;;22.27;6.07;;;;;;;6.20;86.87;101857.66;8177889;35;20227;-78
2022/01/17 15:12:23;;;;;;;15.35;4.82;;;;;;;5.92;87.82;101877.41;8200065;35;20337;-77
2022/01/17 15:17:29;;;;;;;13.30;4.13;;;;;;;5.71;86.95;101879.06;8178818;35;20244;-77
2022/01/17 15:22:32;;;;;;;17.35;5.13;;;;;;;5.73;86.26;101895.88;8178807;35;20195;-78
2022/01/17 15:27:37;;;;;;;18.63;4.38;;;;;;;5.50;85.56;101910.03;8184598;35;20175;-78
2022/01/17 15:32:40;;;;;;;11.73;4.47;;;;;;;5.48;85.33;101911.88;8199863;35;21101;-78
2022/01/17 15:37:43;;;;;;;20.50;5.00;;;;;;;5.50;85.17;101911.84;8180456;35;20426;-77
2022/01/17 15:42:49;;;;;;;16.35;3.88;;;;;;;5.38;84.83;101937.13;8177144;35;20760;-77
2022/01/17 15:47:52;;;;;;;15.73;4.20;;;;;;;5.17;84.26;101935.19;8176774;35;20171;-77
2022/01/17 15:52:55;;;;;;;7.38;3.35;;;;;;;5.15;83.79;101924.56;8176450;35;20172;-77
2022/01/17 15:58:02;;;;;;;12.43;2.90;;;;;;;5.02;82.88;101936.59;8179334;35;20197;-77
2022/01/17 16:03:06;;;;;;;9.68;2.85;;;;;;;4.99;82.77;101950.88;8178469;35;20160;-77
2022/01/17 16:08:11;;;;;;;9.95;2.65;;;;;;;5.00;81.75;101943.75;8180542;35;20755;-77
2022/01/17 16:13:19;;;;;;;7.38;3.03;;;;;;;4.94;80.29;101952.78;8177419;35;20140;-76
2022/01/17 16:18:22;;;;;;;12.55;4.65;;;;;;;5.17;79.33;101993.81;8174811;35;20191;-77
2022/01/17 16:23:28;;;;;;;6.75;2.80;;;;;;;5.03;79.64;102008.44;8178629;35;20240;-76
2022/01/17 16:28:33;;;;;;;4.55;2.38;;;;;;;5.29;80.03;102006.72;8174967;35;20195;-75
2022/01/17 16:33:40;;;;;;;6.97;2.47;;;;;;;5.21;79.04;102014.09;8171641;35;20208;-74
2022/01/17 16:38:48;;;;;;;5.20;2.22;;;;;;;5.25;79.71;102021.94;8172957;35;20191;-75
2022/01/17 16:43:55;;;;;;;5.65;2.17;;;;;;;5.23;79.68;102028.22;8174388;35;20184;-75
2022/01/17 16:48:58;;;;;;;8.55;2.55;;;;;;;5.32;80.15;102027.06;8172563;35;20188;-75
2022/01/17 16:54:03;;;;;;;7.95;2.40;;;;;;;5.35;79.23;102045.59;8191302;35;21666;-75
2022/01/17 16:59:10;;;;;;;5.00;2.40;;;;;;;5.15;79.01;102054.25;8169436;35;20258;-75
2022/01/17 17:04:15;;;;;;;9.93;2.45;;;;;;;5.38;80.04;102050.88;8169643;35;20186;-75
2022/01/17 17:09:21;;;;;;;12.60;3.78;;;;;;;5.38;80.40;102054.41;8171659;35;20145;-74
2022/01/17 17:14:25;;;;;;;8.77;2.85;;;;;;;5.27;80.50;102078.72;8170163;35;20194;-75
2022/01/17 17:19:29;;;;;;;8.35;3.22;;;;;;;5.35;79.82;102069.59;8169957;35;20172;-75
2022/01/17 17:24:32;;;;;;;5.53;2.35;;;;;;;5.33;79.14;102075.00;8170686;35;20567;-75
2022/01/17 17:29:37;;;;;;;11.43;3.95;;;;;;;5.44;79.03;102077.31;8169737;35;20537;-75
2022/01/17 17:34:41;;;;;;;7.05;2.08;;;;;;;5.25;78.41;102083.22;8171226;35;20745;-75
2022/01/17 17:39:44;;;;;;;6.43;2.67;;;;;;;5.48;79.02;102089.59;8170206;35;20302;-75
2022/01/17 17:44:48;;;;;;;7.07;2.70;;;;;;;5.39;78.43;102097.91;8169539;35;20230;-74
2022/01/17 17:49:52;;;;;;;6.60;2.67;;;;;;;5.42;78.58;102108.47;8171205;35;20626;-75
2022/01/17 17:54:55;;;;;;;7.78;2.53;;;;;;;5.53;79.09;102126.78;8173842;35;20471;-76
2022/01/17 18:00:01;;;;;;;5.35;2.17;;;;;;;5.46;79.09;102127.00;8170591;35;20455;-75
2022/01/17 18:05:04;;;;;;;10.20;2.55;;;;;;;5.30;77.55;102144.38;8171831;35;20289;-75
2022/01/17 18:10:09;;;;;;;13.00;2.22;;;;;;;5.45;76.44;102154.53;8170893;35;20221;-75
2022/01/17 18:15:13;;;;;;;10.63;2.75;;;;;;;5.50;76.93;102165.06;8170499;35;20334;-75
2022/01/17 18:20:18;;;;;;;9.95;3.97;;;;;;;5.38;77.24;102160.13;8170800;35;20187;-75
2022/01/17 18:25:21;;;;;;;8.00;2.30;;;;;;;5.40;77.90;102171.59;8181735;35;20233;-75
2022/01/17 18:30:26;;;;;;;9.50;4.30;;;;;;;5.33;77.61;102183.41;8208985;35;20239;-75
2022/01/17 18:35:30;;;;;;;9.40;3.67;;;;;;;5.35;77.99;102181.53;8179950;35;20223;-76
2022/01/17 18:40:33;;;;;;;11.15;2.97;;;;;;;5.38;78.21;102194.78;8169591;35;20735;-76
2022/01/17 18:45:38;;;;;;;11.55;4.18;;;;;;;5.20;77.43;102188.22;8169851;35;20192;-77
2022/01/17 18:50:41;;;;;;;9.73;3.00;;;;;;;5.35;77.82;102198.41;8169985;35;20156;-76
2022/01/17 18:55:46;;;;;;;7.80;3.60;;;;;;;5.36;78.54;102208.16;8189441;35;20191;-76
2022/01/17 19:00:51;;;;;;;10.18;3.08;;;;;;;5.23;78.58;102220.94;8169384;35;20208;-76
2022/01/17 19:05:54;;;;;;;9.32;2.97;;;;;;;5.27;79.58;102227.09;8168693;35;20210;-76
2022/01/17 19:10:57;;;;;;;9.32;3.38;;;;;;;5.14;79.57;102221.25;8169017;35;20664;-76
2022/01/17 19:16:06;;;;;;;10.82;2.70;;;;;;;4.91;79.17;102218.31;8168040;35;20151;-76
2022/01/17 19:21:30;;;;;;;9.50;2.97;;;;;;;5.11;79.75;102233.78;8164682;35;20491;-76
2022/01/17 19:26:34;;;;;;;9.07;2.88;;;;;;;5.01;78.24;102234.03;8168641;35;20626;-77
2022/01/17 19:31:39;;;;;;;7.75;2.33;;;;;;;5.12;77.92;102238.19;8166784;35;20285;-76
2022/01/17 19:36:44;;;;;;;9.07;2.95;;;;;;;5.23;78.47;102244.94;8168034;35;20203;-76
2022/01/17 19:41:47;;;;;;;8.45;3.45;;;;;;;5.15;76.87;102240.75;8169953;35;20242;-77
2022/01/17 19:46:52;;;;;;;9.50;2.75;;;;;;;5.30;78.53;102266.09;8172562;35;20307;-76
2022/01/17 19:51:56;;;;;;;13.07;4.15;;;;;;;5.23;76.85;102279.56;8171889;35;20258;-76
2022/01/17 19:56:59;;;;;;;8.35;3.25;;;;;;;5.17;76.32;102294.88;8172543;35;20485;-77
2022/01/17 20:02:08;;;;;;;10.70;2.70;;;;;;;5.26;77.68;102308.81;8172761;35;20479;-77
2022/01/17 20:07:11;;;;;;;10.20;2.72;;;;;;;5.10;77.89;102322.59;8173068;35;20525;-76
2022/01/17 20:12:14;;;;;;;10.20;3.28;;;;;;;5.23;78.39;102326.69;8172089;35;20503;-77
2022/01/17 20:17:19;;;;;;;12.20;2.90;;;;;;;4.97;78.76;102333.56;8191594;35;20256;-77
2022/01/17 20:22:22;;;;;;;14.80;3.50;;;;;;;5.11;78.27;102337.69;8171547;35;20195;-77
2022/01/17 20:27:29;;;;;;;10.15;3.13;;;;;;;5.01;79.01;102345.91;8171868;35;20482;-77
2022/01/17 20:32:34;;;;;;;11.90;3.17;;;;;;;4.92;79.62;102353.25;8170932;35;20145;-77
2022/01/17 20:37:38;;;;;;;7.00;2.58;;;;;;;4.70;80.32;102352.94;8170998;35;20244;-77
2022/01/17 20:42:41;;;;;;;10.70;2.90;;;;;;;4.84;80.57;102356.97;8170661;35;20140;-77
2022/01/17 20:47:47;;;;;;;6.88;2.50;;;;;;;4.97;81.09;102354.00;8171012;35;20144;-77
2022/01/17 20:52:51;;;;;;;10.15;2.88;;;;;;;4.77;80.67;102357.16;8171076;35;21232;-76
2022/01/17 20:57:54;;;;;;;8.85;2.85;;;;;;;4.82;79.61;102358.78;8170570;35;20195;-76
2022/01/17 21:02:58;;;;;;;7.57;3.40;;;;;;;4.98;78.92;102359.28;8169162;35;20191;-77
2022/01/17 21:08:02;;;;;;;14.40;3.00;;;;;;;5.01;78.64;102364.56;8170616;35;20191;-77
2022/01/17 21:13:06;;;;;;;8.85;3.38;;;;;;;5.08;78.61;102367.06;8170899;35;20183;-77
2022/01/17 21:18:10;;;;;;;14.02;2.58;;;;;;;4.91;78.77;102375.44;8170948;35;20569;-77
2022/01/17 21:23:13;;;;;;;11.02;3.97;;;;;;;5.09;78.88;102376.81;8170311;35;20216;-76
2022/01/17 21:28:17;;;;;;;11.35;3.22;;;;;;;5.05;79.63;102378.69;8169928;35;20187;-77
2022/01/17 21:33:24;;;;;;;11.13;3.22;;;;;;;5.04;80.11;102385.78;8169864;35;20155;-76
2022/01/17 21:38:27;;;;;;;13.68;3.55;;;;;;;4.88;80.61;102395.03;8169812;35;20205;-76
2022/01/17 21:43:30;;;;;;;12.30;3.22;;;;;;;5.02;80.43;102398.28;8169427;35;20200;-77
2022/01/17 21:48:34;;;;;;;8.50;2.83;;;;;;;4.97;80.20;102393.97;8170594;35;20591;-76
2022/01/17 21:53:40;;;;;;;6.45;2.60;;;;;;;4.92;79.76;102395.88;8171656;35;20294;-77
2022/01/17 21:58:43;;;;;;;7.38;2.55;;;;;;;4.58;80.59;102392.25;8170554;35;20191;-77
2022/01/17 22:03:48;;;;;;;13.40;2.85;;;;;;;4.78;80.07;102393.56;8169694;35;20306;-77
2022/01/17 22:08:51;;;;;;;7.05;3.13;;;;;;;4.92;79.60;102391.41;8171399;35;20172;-77
2022/01/17 22:13:54;;;;;;;7.45;2.97;;;;;;;4.82;79.02;102392.53;8170626;35;21456;-78
2022/01/17 22:18:58;;;;;;;9.70;2.58;;;;;;;4.82;79.00;102393.41;8179149;35;20254;-78
2022/01/17 22:24:03;;;;;;;10.73;2.45;;;;;;;4.79;79.40;102393.50;8180220;35;20539;-78
2022/01/17 22:29:06;;;;;;;9.65;2.58;;;;;;;4.93;78.65;102401.13;8213857;35;20330;-78
2022/01/17 22:34:10;;;;;;;6.55;2.60;;;;;;;4.73;79.03;102400.78;8176919;35;20327;-78
2022/01/17 22:39:13;;;;;;;5.72;2.42;;;;;;;4.84;78.68;102409.38;8176526;35;20179;-77
2022/01/17 22:44:17;;;;;;;8.25;2.47;;;;;;;4.80;78.65;102413.00;8176896;35;20163;-77
2022/01/17 22:49:23;;;;;;;6.40;2.42;;;;;;;4.58;79.50;102416.22;8175066;35;20728;-78
2022/01/17 22:54:27;;;;;;;11.25;3.55;;;;;;;4.73;78.69;102422.94;8175674;35;20620;-78
2022/01/17 22:59:30;;;;;;;7.25;3.05;;;;;;;4.79;78.63;102424.56;8175878;35;20198;-78
2022/01/17 23:04:37;;;;;;;7.68;2.70;;;;;;;4.61;79.25;102425.91;8173565;35;20566;-78
2022/01/17 23:09:40;;;;;;;7.75;2.85;;;;;;;4.48;79.43;102420.00;8181566;35;21195;-78
2022/01/17 23:14:46;;;;;;;8.48;2.95;;;;;;;4.66;78.32;102421.31;8175625;35;20337;-77
2022/01/17 23:19:54;;;;;;;6.45;2.47;;;;;;;4.64;78.92;102420.50;8177011;35;21413;-77
2022/01/17 23:25:16;;;;;;;8.90;2.60;;;;;;;4.78;78.98;102433.50;8175574;35;20231;-78
2022/01/17 23:30:30;;;;;;;5.20;2.30;;;;;;;4.60;80.76;102443.66;8176767;35;20195;-78
2022/01/17 23:35:34;;;;;;;11.27;2.80;;;;;;;4.09;84.88;102451.91;8174658;35;20228;-77
2022/01/17 23:40:41;;;;;;;7.38;2.08;;;;;;;4.19;85.45;102449.91;8177831;35;20230;-78
2022/01/17 23:45:44;;;;;;;8.35;2.33;;;;;;;4.25;85.19;102448.88;8180924;35;20280;-78
2022/01/17 23:50:49;;;;;;;7.43;2.38;;;;;;;4.25;85.72;102452.44;8177623;35;20246;-78
2022/01/17 23:55:54;;;;;;;7.47;2.30;;;;;;;4.18;86.43;102446.38;8172490;35;20569;-77
